Time;durP1;ratioP1;P1;durP2;ratioP2;P2;SDS_P1;SDS_P2;PMS_P1;PMS_P2;Temp;Humidity;BMP_temperature;BMP_pressure;BME280_temperature;BME280_humidity;BME280_pressure;Samples;Min_cycle;Max_cycle;Signal;HPM_P1;HPM_P2
2022/04/04 00:02:21;;;;;;;4.18;3.97;;;;;;;0.49;93.98;101528.63;6111667;23;20233;-67
2022/04/04 00:04:47;;;;;;;2.80;2.70;;;;;;;0.48;94.66;101529.47;6113783;23;20037;-67
2022/04/04 00:07:14;;;;;;;2.80;2.70;;;;;;;0.56;94.11;101540.66;6111406;23;20360;-66
2022/04/04 00:09:40;;;;;;;2.85;2.75;;;;;;;0.52;94.47;101538.94;6098990;23;20020;-66
2022/04/04 00:12:07;;;;;;;4.55;4.35;;;;;;;0.50;95.32;101540.66;6114692;23;20017;-66
2022/04/04 00:14:34;;;;;;;2.60;2.50;;;;;;;0.49;95.29;101547.53;6126395;23;20068;-67
2022/04/04 00:17:01;;;;;;;4.45;4.25;;;;;;;0.31;95.10;101495.84;6102645;23;20042;-67
2022/04/04 00:19:27;;;;;;;2.75;2.65;;;;;;;0.48;95.62;101537.22;6118523;23;20020;-67
2022/04/04 00:21:54;;;;;;;3.88;3.72;;;;;;;0.22;95.22;101481.22;6113380;23;20018;-67
2022/04/04 00:24:20;;;;;;;2.72;2.63;;;;;;;0.35;95.68;101516.50;6103432;23;20015;-67
2022/04/04 00:26:46;;;;;;;2.70;2.60;;;;;;;0.37;96.04;101527.72;6094601;23;20038;-67
2022/04/04 00:29:13;;;;;;;3.03;2.92;;;;;;;0.30;96.23;101502.75;6113259;23;20013;-66
2022/04/04 00:31:39;;;;;;;2.50;2.40;;;;;;;0.07;96.09;101469.09;6115165;23;20024;-67
2022/04/04 00:34:06;;;;;;;4.07;3.88;;;;;;;0.16;96.27;101486.31;6110183;23;20032;-67
2022/04/04 00:36:32;;;;;;;2.60;2.50;;;;;;;0.13;96.04;101483.75;6111491;23;20009;-66
2022/04/04 00:38:59;;;;;;;4.18;3.97;;;;;;;0.14;96.25;101477.72;6096304;23;20042;-67
2022/04/04 00:41:25;;;;;;;2.60;2.50;;;;;;;0.30;96.99;101515.66;6112660;23;20015;-66
2022/04/04 00:43:53;;;;;;;2.78;2.67;;;;;;;0.14;97.12;101485.47;6112249;23;20419;-66
2022/04/04 00:46:20;;;;;;;2.80;2.70;;;;;;;0.09;96.75;101476.84;6120019;23;20038;-66
2022/04/04 00:48:48;;;;;;;2.53;2.42;;;;;;;0.34;96.76;101501.00;6091176;23;20029;-67
2022/04/04 00:51:15;;;;;;;2.60;2.50;;;;;;;0.39;98.46;101497.59;6116270;23;20021;-67
2022/04/04 00:53:41;;;;;;;2.70;2.60;;;;;;;0.42;98.64;101490.72;6082739;23;20009;-66
2022/04/04 00:56:08;;;;;;;4.78;4.57;;;;;;;0.42;98.06;101493.28;6099749;23;20030;-67
2022/04/04 00:58:37;;;;;;;2.80;2.70;;;;;;;0.38;97.23;101480.41;6116351;23;20128;-67
2022/04/04 01:01:05;;;;;;;4.43;4.22;;;;;;;0.29;98.05;101466.59;6105201;23;20505;-67
2022/04/04 01:03:31;;;;;;;3.08;2.97;;;;;;;0.40;97.81;101485.53;6109843;23;20041;-66
2022/04/04 01:05:59;;;;;;;4.13;3.92;;;;;;;0.39;98.31;101479.53;6107447;23;20017;-66
2022/04/04 01:08:26;;;;;;;2.65;2.55;;;;;;;0.45;98.22;101473.50;6114351;23;20434;-67
2022/04/04 01:10:52;;;;;;;3.17;3.05;;;;;;;0.18;98.41;101440.72;6105616;23;20030;-67
2022/04/04 01:13:19;;;;;;;2.58;2.47;;;;;;;0.26;98.28;101456.25;6113423;23;20442;-66
2022/04/04 01:15:46;;;;;;;2.60;2.50;;;;;;;0.28;97.93;101449.38;6127176;23;20091;-66
2022/04/04 01:18:12;;;;;;;2.70;2.60;;;;;;;0.38;98.78;101467.47;6115734;23;20483;-67
2022/04/04 01:20:39;;;;;;;2.67;2.58;;;;;;;0.21;99.26;101437.31;6122739;23;20037;-66
2022/04/04 01:23:06;;;;;;;4.55;4.35;;;;;;;0.14;98.75;101447.63;6109081;23;20108;-67
2022/04/04 01:25:37;;;;;;;3.13;2.92;;;;;;;0.22;98.98;101433.88;6109889;23;20081;-66
2022/04/04 01:28:05;;;;;;;4.25;4.05;;;;;;;0.38;98.44;101459.72;6114062;23;20429;-67
2022/04/04 01:30:32;;;;;;;3.17;3.03;;;;;;;0.11;98.23;101406.31;6114519;23;20084;-66
2022/04/04 01:32:59;;;;;;;5.07;4.88;;;;;;;-0.02;97.98;101383.91;6078946;23;20143;-67
2022/04/04 01:35:25;;;;;;;2.70;2.60;;;;;;;0.38;98.71;101452.00;6117334;23;20044;-67
2022/04/04 01:37:52;;;;;;;2.78;2.67;;;;;;;0.37;99.07;101445.09;6111957;23;20022;-66
2022/04/04 01:40:19;;;;;;;2.65;2.55;;;;;;;0.14;98.71;101408.03;6116411;23;20015;-66
2022/04/04 01:42:47;;;;;;;2.45;2.35;;;;;;;0.36;98.83;101442.50;6114831;23;20020;-67
2022/04/04 01:45:14;;;;;;;2.20;2.10;;;;;;;0.38;98.98;101441.66;6112443;23;21076;-67
2022/04/04 01:47:41;;;;;;;2.70;2.60;;;;;;;0.39;99.34;101430.47;6122679;23;20044;-67
2022/04/04 01:50:08;;;;;;;4.30;4.10;;;;;;;0.42;99.13;101432.19;6105838;23;20030;-67
2022/04/04 01:52:34;;;;;;;2.50;2.40;;;;;;;0.40;99.45;101428.72;6115366;23;20031;-66
2022/04/04 01:55:01;;;;;;;4.45;4.25;;;;;;;0.16;99.78;101390.81;6104756;23;20432;-67
2022/04/04 01:57:28;;;;;;;2.70;2.60;;;;;;;0.01;98.90;101376.19;6110519;23;20045;-67
2022/04/04 01:59:54;;;;;;;2.88;2.78;;;;;;;0.32;99.00;101420.13;6116610;23;20017;-65
2022/04/04 02:02:21;;;;;;;2.80;2.70;;;;;;;0.28;98.81;101410.66;6111353;23;20226;-66
2022/04/04 02:04:48;;;;;;;2.45;2.35;;;;;;;0.16;99.73;101394.28;6097971;23;20328;-67
2022/04/04 02:07:14;;;;;;;9.07;3.38;;;;;;;0.05;99.34;101374.47;6106945;23;20243;-66
2022/04/04 02:09:40;;;;;;;2.50;2.40;;;;;;;0.06;99.61;101382.22;6108430;23;20055;-67
2022/04/04 02:12:09;;;;;;;3.50;3.40;;;;;;;0.24;99.38;101406.34;6112811;23;20005;-66
2022/04/04 02:14:36;;;;;;;2.53;2.42;;;;;;;0.22;99.53;101406.34;6115536;23;20194;-67
2022/04/04 02:17:04;;;;;;;4.68;4.47;;;;;;;0.33;99.06;101404.63;6128589;23;20036;-66
2022/04/04 02:19:30;;;;;;;2.67;2.58;;;;;;;0.08;98.67;101369.31;6113436;23;20497;-67
2022/04/04 02:21:57;;;;;;;4.28;4.07;;;;;;;0.15;98.41;101387.41;6116308;23;20088;-64
2022/04/04 02:24:24;;;;;;;2.72;2.63;;;;;;;0.22;99.10;101393.44;6113048;23;20384;-66
2022/04/04 02:26:50;;;;;;;2.40;2.30;;;;;;;0.06;99.87;101359.00;6112742;23;20038;-65
2022/04/04 02:29:17;;;;;;;2.60;2.50;;;;;;;0.02;99.51;101348.66;6097038;23;20025;-66
2022/04/04 02:31:44;;;;;;;2.33;2.22;;;;;;;0.24;99.23;101396.00;6116253;23;20182;-67
2022/04/04 02:34:10;;;;;;;3.45;3.35;;;;;;;-0.03;100.00;101322.84;6105766;23;20009;-67
2022/04/04 02:36:37;;;;;;;3.30;3.15;;;;;;;0.24;99.93;101371.09;6119579;23;20076;-67
2022/04/04 02:39:03;;;;;;;4.40;4.20;;;;;;;0.22;99.86;101365.06;6111493;23;20244;-66
2022/04/04 02:41:29;;;;;;;2.60;2.50;;;;;;;-0.01;99.25;101329.72;6123022;23;20497;-67
2022/04/04 02:43:56;;;;;;;4.18;3.97;;;;;;;0.22;99.54;101361.59;6117417;23;20014;-66
2022/04/04 02:46:22;;;;;;;2.60;2.50;;;;;;;0.20;100.00;101351.25;6108793;23;20411;-67
2022/04/04 02:48:49;;;;;;;2.90;2.80;;;;;;;0.04;99.50;101319.44;6116041;23;20041;-66
2022/04/04 02:51:15;;;;;;;2.60;2.50;;;;;;;0.06;99.16;101334.91;6107146;23;20422;-67
2022/04/04 02:53:42;;;;;;;2.50;2.40;;;;;;;-0.24;99.82;101274.66;6100484;23;20099;-66
2022/04/04 02:58:53;;;;;;;3.22;3.13;;;;;;;0.18;99.22;101327.16;6103277;23;20006;-71
2022/04/04 03:01:20;;;;;;;2.50;2.40;;;;;;;0.16;99.13;101341.78;6115545;23;20085;-69
2022/04/04 03:03:47;;;;;;;2.40;2.30;;;;;;;-0.07;99.81;101290.16;6116479;23;20021;-66
2022/04/04 03:06:14;;;;;;;3.22;3.13;;;;;;;-0.12;99.22;101273.81;6105434;23;20368;-66
2022/04/04 03:08:41;;;;;;;3.22;3.13;;;;;;;0.16;99.64;101318.56;6121101;23;20006;-66
2022/04/04 03:11:07;;;;;;;4.38;4.18;;;;;;;0.15;99.64;101306.53;6121845;23;20347;-67
2022/04/04 03:13:34;;;;;;;2.40;2.30;;;;;;;0.03;99.25;101291.03;6126944;23;20504;-66
2022/04/04 03:16:00;;;;;;;4.00;3.83;;;;;;;0.18;99.67;101306.50;6125352;23;20026;-67
2022/04/04 03:18:27;;;;;;;2.40;2.30;;;;;;;0.11;98.95;101286.75;6120862;23;20033;-67
2022/04/04 03:20:54;;;;;;;2.65;2.55;;;;;;;-0.02;98.85;101266.09;6122098;23;20100;-66
2022/04/04 03:23:22;;;;;;;3.67;3.38;;;;;;;0.19;99.27;101298.78;6122373;23;20041;-66
2022/04/04 03:25:49;;;;;;;2.67;2.58;;;;;;;0.21;99.19;101295.34;6124625;23;20453;-65
2022/04/04 03:28:15;;;;;;;2.60;2.50;;;;;;;0.27;99.23;101288.47;6134765;23;20135;-67
2022/04/04 03:30:42;;;;;;;2.67;2.58;;;;;;;0.32;99.35;101284.16;6123832;23;20032;-67
2022/04/04 03:33:08;;;;;;;3.83;3.65;;;;;;;-0.01;99.17;101228.25;6116192;23;20030;-67
2022/04/04 03:35:35;;;;;;;2.33;2.22;;;;;;;0.13;99.08;101265.22;6118159;23;20013;-67
2022/04/04 03:38:02;;;;;;;2.60;2.50;;;;;;;0.26;98.58;101262.63;6121210;23;20517;-66
2022/04/04 03:40:29;;;;;;;2.45;2.35;;;;;;;0.39;98.77;101274.69;6134013;23;20071;-66
2022/04/04 03:42:58;;;;;;;3.28;3.15;;;;;;;0.01;98.54;101223.94;6111004;23;20013;-67
2022/04/04 03:45:24;;;;;;;2.60;2.50;;;;;;;0.42;97.99;101273.81;6119258;23;20092;-67
2022/04/04 03:47:52;;;;;;;2.53;2.42;;;;;;;0.39;97.03;101265.22;6127320;23;20046;-66
2022/04/04 03:50:20;;;;;;;2.65;2.55;;;;;;;0.39;97.88;101254.88;6109841;23;20387;-67
2022/04/04 03:52:48;;;;;;;2.60;2.50;;;;;;;0.50;97.14;101251.41;6119876;23;20038;-67
2022/04/04 03:55:16;;;;;;;2.42;2.33;;;;;;;0.54;96.41;101250.56;6117047;23;20124;-66
2022/04/04 03:57:44;;;;;;;2.97;2.88;;;;;;;0.53;96.36;101241.94;6113678;23;20038;-66
2022/04/04 04:00:12;;;;;;;3.72;3.63;;;;;;;0.14;95.72;101178.34;6115427;23;20633;-67
2022/04/04 04:02:39;;;;;;;2.50;2.40;;;;;;;-0.77;95.01;101007.38;6108512;23;20014;-66
2022/04/04 04:05:11;;;;;;;3.05;2.95;;;;;;;0.62;95.58;101232.47;6105267;23;20021;-67
2022/04/04 04:07:38;;;;;;;2.25;2.15;;;;;;;0.54;94.81;101206.66;6110401;23;20081;-66
2022/04/04 04:10:05;;;;;;;4.10;3.90;;;;;;;0.69;94.45;101224.69;6111845;23;20080;-66
2022/04/04 04:12:32;;;;;;;2.40;2.30;;;;;;;0.70;94.31;101217.81;6107788;23;20153;-67
2022/04/04 04:14:59;;;;;;;4.40;4.20;;;;;;;0.76;93.49;101212.63;6110770;23;20024;-68
2022/04/04 04:17:25;;;;;;;2.72;2.63;;;;;;;0.62;93.32;101191.13;6095520;23;20020;-65
2022/04/04 04:22:38;;;;;;;2.70;2.60;;;;;;;0.79;92.56;101210.88;6109734;23;20033;-67
2022/04/04 04:25:05;;;;;;;4.15;3.95;;;;;;;0.79;92.56;101208.28;6105285;23;20025;-68
2022/04/04 04:27:32;;;;;;;2.88;2.78;;;;;;;0.73;92.48;101195.41;6120684;23;20041;-67
2022/04/04 04:29:59;;;;;;;4.25;4.05;;;;;;;0.73;92.29;101202.31;6111858;23;20029;-66
2022/04/04 04:32:25;;;;;;;2.85;2.75;;;;;;;0.53;92.40;101167.06;6108896;23;20414;-66
2022/04/04 04:34:52;;;;;;;2.67;2.58;;;;;;;0.63;92.51;101182.53;6111502;23;20168;-65
2022/04/04 04:37:21;;;;;;;2.60;2.50;;;;;;;0.67;92.16;101195.44;6116237;23;20598;-67
2022/04/04 04:39:49;;;;;;;2.60;2.50;;;;;;;0.59;91.71;101182.53;6116659;23;20033;-68
2022/04/04 04:42:16;;;;;;;2.80;2.70;;;;;;;0.66;92.03;101192.84;6101591;23;20100;-66
2022/04/04 04:44:44;;;;;;;2.50;2.40;;;;;;;0.50;92.48;101169.66;6108814;23;20077;-68
2022/04/04 04:47:11;;;;;;;3.70;3.60;;;;;;;0.56;91.92;101154.16;6111083;23;20021;-67
2022/04/04 04:49:37;;;;;;;2.50;2.40;;;;;;;0.71;91.55;101173.88;6090611;23;20039;-66
2022/04/04 04:52:04;;;;;;;4.35;4.15;;;;;;;0.81;91.58;101173.88;6092237;23;20083;-66
2022/04/04 04:54:33;;;;;;;3.03;2.92;;;;;;;0.48;90.46;101114.59;6109957;23;20064;-66
2022/04/04 04:57:00;;;;;;;4.43;4.22;;;;;;;0.78;90.78;101152.34;6073405;23;20523;-65
2022/04/04 04:59:26;;;;;;;2.70;2.60;;;;;;;0.76;90.03;101135.09;6100607;23;20411;-65
2022/04/04 05:01:53;;;;;;;3.30;3.17;;;;;;;0.96;89.37;101156.56;6086816;23;20494;-68
2022/04/04 05:04:19;;;;;;;2.70;2.60;;;;;;;0.99;89.31;101151.38;6103436;23;20005;-67
2022/04/04 05:06:49;;;;;;;2.38;2.28;;;;;;;0.44;88.89;101078.44;6116116;23;20092;-68
2022/04/04 05:09:19;;;;;;;3.53;3.30;;;;;;;0.88;88.87;101108.34;6091020;23;20760;-66
2022/04/04 05:11:45;;;;;;;2.60;2.50;;;;;;;1.17;87.92;101145.22;6120533;23;20037;-65
2022/04/04 05:14:15;;;;;;;2.50;2.40;;;;;;;1.20;87.25;101134.00;6131627;23;20052;-65
2022/04/04 05:16:46;;;;;;;2.60;2.50;;;;;;;0.90;87.29;101093.69;6117017;23;20033;-65
2022/04/04 05:19:13;;;;;;;2.60;2.50;;;;;;;1.22;86.88;101126.25;6122187;23;20025;-65
2022/04/04 05:21:40;;;;;;;2.38;2.28;;;;;;;1.06;86.83;101107.38;6100692;23;20415;-66
2022/04/04 05:24:08;;;;;;;2.53;2.42;;;;;;;0.92;86.75;101072.19;6117907;23;20041;-66
2022/04/04 05:26:35;;;;;;;2.60;2.50;;;;;;;0.77;86.58;101044.69;6104176;23;20009;-66
2022/04/04 05:29:03;;;;;;;2.75;2.65;;;;;;;1.33;86.25;101127.88;6107550;23;20022;-66
2022/04/04 05:31:33;;;;;;;2.70;2.60;;;;;;;1.26;85.46;101107.25;6107606;23;20754;-66
2022/04/04 05:34:04;;;;;;;4.05;3.85;;;;;;;1.49;84.76;101126.03;6124466;23;20067;-67
2022/04/04 05:36:31;;;;;;;2.40;2.30;;;;;;;1.52;84.85;101119.97;6106421;23;20580;-67
2022/04/04 05:38:58;;;;;;;2.65;2.55;;;;;;;1.58;84.07;101120.81;6128654;23;20102;-67
2022/04/04 05:41:27;;;;;;;2.60;2.50;;;;;;;1.53;83.88;101112.22;6113256;23;20035;-71
2022/04/04 05:43:54;;;;;;;3.45;3.33;;;;;;;0.36;82.92;100885.72;6125394;23;20023;-66
2022/04/04 05:46:20;;;;;;;2.67;2.58;;;;;;;1.67;82.76;101098.31;6101791;23;20068;-66
2022/04/04 05:48:48;;;;;;;2.50;2.40;;;;;;;1.78;82.58;101110.28;6110412;23;20013;-66
2022/04/04 05:51:16;;;;;;;3.00;2.90;;;;;;;1.90;81.77;101104.13;6109654;23;20032;-66
2022/04/04 05:53:44;;;;;;;2.45;2.35;;;;;;;1.94;81.95;101100.63;6117890;23;20033;-67
2022/04/04 05:56:10;;;;;;;3.92;3.78;;;;;;;1.96;81.19;101096.28;6101719;23;21169;-69
2022/04/04 05:58:37;;;;;;;2.70;2.60;;;;;;;2.04;81.62;101095.34;6105939;23;20028;-69
2022/04/04 06:01:04;;;;;;;4.65;4.45;;;;;;;2.13;81.00;101095.28;6110240;23;20046;-65
2022/04/04 06:03:30;;;;;;;2.78;2.67;;;;;;;2.16;80.23;101092.63;6089483;23;20026;-68
2022/04/04 06:05:57;;;;;;;5.07;4.88;;;;;;;2.01;79.83;101056.59;6111776;23;20029;-64
2022/04/04 06:08:23;;;;;;;2.90;2.80;;;;;;;2.07;80.16;101057.34;6117155;23;20050;-65
2022/04/04 06:10:50;;;;;;;2.70;2.60;;;;;;;2.33;79.81;101082.94;6088455;23;20072;-64
2022/04/04 06:13:18;;;;;;;3.70;3.60;;;;;;;2.28;78.84;101064.00;6096740;23;20038;-65
2022/04/04 06:15:46;;;;;;;3.10;3.00;;;;;;;2.20;78.88;101037.34;6085673;23;20016;-65
2022/04/04 06:18:13;;;;;;;2.80;2.70;;;;;;;2.30;78.37;101057.06;6116449;23;20425;-65
2022/04/04 06:20:40;;;;;;;2.92;2.83;;;;;;;2.53;78.50;101079.25;6110858;23;20072;-64
2022/04/04 06:23:07;;;;;;;3.25;3.15;;;;;;;2.55;78.39;101075.75;6096321;23;20079;-64
2022/04/04 06:25:35;;;;;;;2.90;2.80;;;;;;;2.42;78.66;101050.03;6101027;23;20172;-64
2022/04/04 06:28:03;;;;;;;4.78;4.57;;;;;;;2.50;78.04;101046.47;6104656;23;20033;-65
2022/04/04 06:30:29;;;;;;;2.95;2.85;;;;;;;2.09;77.79;100971.91;6111643;23;20465;-65
2022/04/04 06:32:56;;;;;;;4.10;3.90;;;;;;;2.57;77.86;101066.22;6112288;23;20088;-64
2022/04/04 06:35:26;;;;;;;3.10;3.00;;;;;;;2.61;77.67;101041.16;6112198;23;20458;-65
2022/04/04 06:37:52;;;;;;;3.42;3.30;;;;;;;2.67;77.08;101037.63;6105585;23;20101;-64
2022/04/04 06:40:19;;;;;;;3.00;2.90;;;;;;;2.44;77.06;100991.28;6118624;23;20029;-65
2022/04/04 06:42:45;;;;;;;2.85;2.75;;;;;;;1.58;76.62;100820.75;6114308;23;20019;-65
2022/04/04 06:45:12;;;;;;;3.50;3.40;;;;;;;3.03;76.12;101032.75;6085684;23;20707;-66
2022/04/04 06:47:40;;;;;;;3.35;3.20;;;;;;;3.22;75.38;101020.34;6111335;23;20021;-66
2022/04/04 06:50:07;;;;;;;5.05;4.85;;;;;;;2.38;74.36;100861.00;6098605;23;20367;-65
2022/04/04 06:52:33;;;;;;;2.97;2.88;;;;;;;2.34;73.33;100807.53;6122728;23;20403;-68
2022/04/04 06:55:01;;;;;;;5.28;4.97;;;;;;;3.73;73.78;101008.19;6110634;23;20010;-68
2022/04/04 06:57:28;;;;;;;3.00;2.90;;;;;;;3.82;72.59;101003.72;6086814;23;20060;-65
2022/04/04 06:59:59;;;;;;;4.75;4.55;;;;;;;3.90;71.62;100968.06;6099201;23;20056;-66
2022/04/04 07:02:26;;;;;;;3.05;2.95;;;;;;;4.30;70.64;100962.03;6110567;23;20021;-65
2022/04/04 07:04:52;;;;;;;3.45;3.33;;;;;;;4.72;69.11;100981.00;6101372;23;20046;-66
2022/04/04 07:07:20;;;;;;;3.00;2.90;;;;;;;4.53;67.46;100906.94;6099475;23;20022;-66
2022/04/04 07:09:47;;;;;;;3.13;3.03;;;;;;;5.22;66.65;100969.41;6096520;23;20025;-66
2022/04/04 07:12:13;;;;;;;3.35;3.25;;;;;;;5.30;66.22;100972.66;6117335;23;20084;-66
2022/04/04 07:14:40;;;;;;;3.00;2.90;;;;;;;5.27;65.17;100955.38;6117408;23;20748;-66
2022/04/04 07:17:06;;;;;;;5.78;5.47;;;;;;;5.40;65.07;100969.75;6112384;23;20027;-66
2022/04/04 07:19:33;;;;;;;3.40;3.30;;;;;;;5.49;64.76;100962.59;6113682;23;20081;-68
2022/04/04 07:22:00;;;;;;;5.47;5.18;;;;;;;5.56;64.56;100948.53;6092447;23;20438;-66
2022/04/04 07:24:27;;;;;;;3.20;3.10;;;;;;;5.70;64.64;100941.19;6093398;23;20020;-66
2022/04/04 07:26:55;;;;;;;4.53;4.35;;;;;;;5.85;63.34;100965.94;6089497;23;20044;-69
2022/04/04 07:29:21;;;;;;;3.50;3.40;;;;;;;5.97;62.86;100934.38;6053667;23;20117;-70
2022/04/04 07:31:48;;;;;;;3.20;3.10;;;;;;;6.08;62.24;100933.22;6099400;23;20033;-66
2022/04/04 07:34:14;;;;;;;4.05;3.85;;;;;;;6.27;61.09;100925.69;6083460;23;20017;-66
2022/04/04 07:36:41;;;;;;;3.20;3.10;;;;;;;6.42;61.35;100934.78;6115703;23;20017;-69
2022/04/04 07:39:09;;;;;;;4.90;4.70;;;;;;;6.57;60.40;100923.88;6103683;23;20029;-66
2022/04/04 07:41:35;;;;;;;3.70;3.50;;;;;;;6.51;59.31;100919.69;6087925;23;20037;-66
2022/04/04 07:44:02;;;;;;;5.05;4.85;;;;;;;6.37;60.51;100895.81;6108381;23;20047;-67
2022/04/04 07:46:28;;;;;;;3.75;3.60;;;;;;;6.46;59.66;100911.19;6089551;23;20026;-66
2022/04/04 07:48:55;;;;;;;4.72;4.53;;;;;;;6.29;59.74;100914.28;6114016;23;20241;-67
2022/04/04 07:51:22;;;;;;;3.45;3.35;;;;;;;6.31;59.90;100903.84;6096942;23;20025;-67
2022/04/04 07:53:49;;;;;;;3.40;3.30;;;;;;;5.45;58.74;100732.78;6110194;23;20359;-67
2022/04/04 07:56:16;;;;;;;3.60;3.50;;;;;;;6.60;58.55;100897.69;6100509;23;20035;-66
2022/04/04 07:58:42;;;;;;;3.40;3.30;;;;;;;6.57;59.21;100893.44;6105207;23;20029;-66
2022/04/04 08:01:09;;;;;;;4.80;4.60;;;;;;;6.69;58.58;100865.25;6095121;23;20052;-67
2022/04/04 08:03:35;;;;;;;3.30;3.20;;;;;;;6.97;57.21;100894.69;6100740;23;20381;-66
2022/04/04 08:06:02;;;;;;;5.55;5.35;;;;;;;6.98;56.68;100890.34;6119493;23;20056;-67
2022/04/04 08:08:29;;;;;;;3.60;3.50;;;;;;;6.71;57.34;100877.31;6104248;23;20046;-67
2022/04/04 08:10:57;;;;;;;4.15;3.95;;;;;;;6.58;58.83;100887.31;6127246;23;20023;-66
2022/04/04 08:13:24;;;;;;;3.70;3.50;;;;;;;6.61;58.19;100862.88;6122504;23;20042;-66
2022/04/04 08:15:52;;;;;;;3.70;3.60;;;;;;;6.74;59.19;100873.78;6093312;23;20025;-66
2022/04/04 08:18:19;;;;;;;3.60;3.50;;;;;;;6.57;58.53;100843.03;6093018;23;20591;-68
2022/04/04 08:20:45;;;;;;;3.40;3.30;;;;;;;6.69;59.02;100870.47;6107184;23;20100;-70
2022/04/04 08:23:29;;;;;;;4.13;3.92;;;;;;;6.37;58.38;100831.53;6080582;23;20014;-68
2022/04/04 08:25:57;;;;;;;4.68;4.47;;;;;;;6.36;59.84;100847.22;6114220;23;20033;-68
2022/04/04 08:28:24;;;;;;;3.70;3.60;;;;;;;6.66;59.84;100862.75;6080580;23;20029;-69
2022/04/04 08:30:51;;;;;;;3.70;3.55;;;;;;;6.93;57.80;100866.16;6117079;23;20020;-66
2022/04/04 08:33:17;;;;;;;3.70;3.60;;;;;;;6.63;57.67;100824.56;6094754;23;20036;-68
2022/04/04 08:35:45;;;;;;;3.60;3.50;;;;;;;6.88;58.94;100845.47;6107304;23;20508;-72
2022/04/04 08:38:13;;;;;;;5.35;5.15;;;;;;;6.98;57.99;100830.34;6101299;23;20084;-66
2022/04/04 08:40:42;;;;;;;3.40;3.30;;;;;;;6.84;56.91;100827.38;6101174;23;20032;-68
2022/04/04 08:43:11;;;;;;;4.55;4.35;;;;;;;6.73;57.47;100840.75;6092890;23;20334;-68
2022/04/04 08:45:42;;;;;;;3.50;3.40;;;;;;;6.94;57.67;100828.75;6115341;23;20037;-68
2022/04/04 08:48:09;;;;;;;5.00;4.80;;;;;;;6.67;58.36;100818.34;6109048;23;20024;-68
2022/04/04 08:50:37;;;;;;;3.50;3.30;;;;;;;6.88;57.06;100832.41;6104481;23;20379;-69
2022/04/04 08:53:05;;;;;;;4.68;4.47;;;;;;;6.72;56.27;100806.00;6111565;23;20656;-66
2022/04/04 08:55:34;;;;;;;3.30;3.20;;;;;;;7.04;57.92;100809.25;6090664;23;20077;-69
2022/04/04 08:58:01;;;;;;;4.63;4.43;;;;;;;7.03;55.64;100797.09;6105766;23;20014;-66
2022/04/04 09:00:27;;;;;;;4.43;3.50;;;;;;;6.99;55.80;100764.19;6102201;23;20042;-66
2022/04/04 09:03:02;;;;;;;4.43;4.25;;;;;;;7.34;55.18;100796.00;6115191;23;20088;-66
2022/04/04 09:05:52;;;;;;;3.63;3.53;;;;;;;7.22;55.23;100781.63;6122754;23;20485;-66
2022/04/04 09:08:23;;;;;;;;;;;;;;;7.30;54.82;100776.97;6105760;23;20277;-66
2022/04/04 09:10:54;;;;;;;3.28;3.17;;;;;;;7.14;55.63;100783.69;6096759;23;19915;-70
2022/04/04 09:13:24;;;;;;;4.30;4.10;;;;;;;7.32;55.12;100779.53;6092191;23;20074;-66
2022/04/04 09:16:02;;;;;;;3.35;3.25;;;;;;;7.11;53.86;100778.56;6114454;23;20180;-66
2022/04/04 09:18:41;;;;;;;3.30;3.20;;;;;;;7.13;55.04;100767.16;6116879;23;20100;-66
2022/04/04 09:21:09;;;;;;;4.72;4.53;;;;;;;7.05;55.55;100768.34;6113056;23;20035;-69
2022/04/04 09:23:56;;;;;;;3.50;3.40;;;;;;;6.95;55.35;100729.53;6117696;23;20014;-69
2022/04/04 09:26:30;;;;;;;3.30;3.20;;;;;;;7.24;55.11;100752.88;6081140;23;20340;-68
2022/04/04 09:29:16;;;;;;;4.93;4.72;;;;;;;7.12;55.88;100723.72;6086671;23;20017;-66
2022/04/04 09:32:05;;;;;;;3.50;3.40;;;;;;;7.44;56.27;100749.47;6094929;23;20037;-71
2022/04/04 09:34:50;;;;;;;3.42;3.30;;;;;;;7.47;56.50;100737.16;6095127;23;20170;-68
2022/04/04 09:37:17;;;;;;;3.38;3.28;;;;;;;7.36;55.98;100719.31;6097981;23;20092;-66
2022/04/04 09:39:44;;;;;;;3.30;3.20;;;;;;;7.51;55.74;100725.69;6090103;23;20080;-68
2022/04/04 09:42:32;;;;;;;3.80;3.60;;;;;;;7.42;55.03;100726.06;6115324;23;20025;-66
2022/04/04 09:45:04;;;;;;;4.57;4.38;;;;;;;7.42;55.38;100702.56;6111449;23;20018;-66
2022/04/04 09:47:49;;;;;;;3.30;3.20;;;;;;;7.59;55.06;100712.34;6106318;23;20037;-69
2022/04/04 09:50:39;;;;;;;3.30;3.20;;;;;;;7.24;55.28;100658.91;6073220;23;20272;-66
2022/04/04 09:53:13;;;;;;;4.10;3.90;;;;;;;7.65;55.23;100712.09;6084424;23;20615;-69
2022/04/04 09:55:45;;;;;;;3.40;3.30;;;;;;;7.66;54.62;100707.72;6101623;23;20453;-66
2022/04/04 09:58:15;;;;;;;4.82;4.63;;;;;;;7.61;55.88;100701.84;6101277;23;20494;-70
2022/04/04 10:00:44;;;;;;;3.50;3.40;;;;;;;7.30;57.10;100679.56;6100763;23;20010;-71
2022/04/04 10:03:12;;;;;;;3.80;3.70;;;;;;;7.33;57.37;100697.69;6119904;23;20479;-67
2022/04/04 10:06:06;;;;;;;3.38;3.28;;;;;;;7.15;57.23;100679.22;6110020;23;20008;-68
2022/04/04 10:08:35;;;;;;;3.50;3.40;;;;;;;7.11;58.35;100672.41;6102403;23;20088;-69
2022/04/04 10:11:02;;;;;;;4.90;4.70;;;;;;;6.97;58.68;100666.88;6112768;23;20224;-68
2022/04/04 10:13:29;;;;;;;4.03;3.83;;;;;;;6.98;58.28;100663.38;6125613;23;20080;-67
2022/04/04 10:15:56;;;;;;;4.70;4.50;;;;;;;7.09;58.94;100673.38;6125343;23;20028;-68
2022/04/04 10:18:23;;;;;;;3.55;3.45;;;;;;;7.02;59.42;100646.69;6098280;23;20013;-68
2022/04/04 10:20:56;;;;;;;4.68;4.47;;;;;;;7.23;59.34;100670.25;6113091;23;20085;-68
2022/04/04 10:23:25;;;;;;;3.30;3.20;;;;;;;7.33;59.24;100674.19;6097041;23;20061;-68
2022/04/04 10:25:52;;;;;;;3.40;3.30;;;;;;;7.07;60.14;100633.44;6110608;23;20075;-66
2022/04/04 10:28:29;;;;;;;4.10;3.90;;;;;;;6.99;60.54;100620.69;6102101;23;20658;-69
2022/04/04 10:31:09;;;;;;;4.75;4.55;;;;;;;7.16;60.66;100638.31;6110709;23;20161;-66
2022/04/04 10:33:37;;;;;;;3.78;3.60;;;;;;;6.93;60.09;100623.53;5998604;23;20045;-67
2022/04/04 10:36:06;;;;;;;5.38;5.18;;;;;;;6.99;60.49;100655.44;6108942;23;20104;-66
2022/04/04 10:38:56;;;;;;;3.40;3.30;;;;;;;7.04;61.08;100663.13;6116455;23;20025;-66
2022/04/04 10:41:26;;;;;;;3.90;3.72;;;;;;;6.73;60.62;100616.47;6104719;23;20031;-66
2022/04/04 10:43:55;;;;;;;3.83;3.67;;;;;;;6.95;59.32;100638.22;6112484;23;20038;-67
2022/04/04 10:46:24;;;;;;;3.45;3.35;;;;;;;7.01;60.45;100633.69;6104136;23;20720;-67
2022/04/04 10:48:53;;;;;;;3.72;3.63;;;;;;;6.94;60.02;100646.13;6109827;23;20026;-66
2022/04/04 10:51:25;;;;;;;3.40;3.30;;;;;;;6.84;59.49;100645.63;6122932;23;20017;-67
2022/04/04 10:53:54;;;;;;;4.30;4.07;;;;;;;6.84;58.87;100643.00;6105761;23;20098;-66
2022/04/04 10:56:27;;;;;;;3.47;3.38;;;;;;;5.61;59.95;100441.59;6089459;23;20084;-67
2022/04/04 10:59:14;;;;;;;;;;;;;;;6.79;60.77;100624.06;6124586;23;20498;-67
2022/04/04 11:01:45;;;;;;;3.40;3.30;;;;;;;6.76;60.66;100629.41;6111694;23;19905;-68
2022/04/04 11:04:28;;;;;;;3.83;3.70;;;;;;;6.83;61.42;100632.63;6094498;23;20013;-65
2022/04/04 11:09:55;;;;;;;3.83;3.70;;;;;;;6.82;61.45;100634.38;6105316;23;20017;-66
2022/04/04 11:12:24;;;;;;;4.25;3.95;;;;;;;6.60;63.91;100605.66;6112685;23;20029;-66
2022/04/04 11:15:01;;;;;;;3.50;3.40;;;;;;;6.42;64.35;100648.03;6108236;23;20100;-67
2022/04/04 11:17:33;;;;;;;4.07;3.88;;;;;;;6.30;66.04;100615.44;6110925;23;20096;-66
2022/04/04 11:20:26;;;;;;;6.35;6.00;;;;;;;6.30;66.58;100624.09;6107408;23;20088;-67
2022/04/04 11:22:55;;;;;;;3.95;3.75;;;;;;;5.93;67.18;100588.03;6114684;23;20030;-67
2022/04/04 11:25:26;;;;;;;3.45;3.35;;;;;;;5.92;68.15;100581.13;6094228;23;20082;-67
2022/04/04 11:27:52;;;;;;;3.72;3.60;;;;;;;6.12;68.97;100624.75;6111421;23;20565;-67
2022/04/04 11:30:25;;;;;;;3.67;3.58;;;;;;;5.48;71.78;100607.75;6086941;23;20667;-67
2022/04/04 11:32:54;;;;;;;3.53;3.42;;;;;;;5.53;75.59;100610.22;6078679;23;20030;-66
2022/04/04 11:35:27;;;;;;;3.30;3.20;;;;;;;5.65;75.90;100614.16;6085148;23;20013;-67
2022/04/04 11:38:05;;;;;;;3.70;3.58;;;;;;;5.69;76.37;100626.19;6095931;23;20025;-67
2022/04/04 11:40:34;;;;;;;3.17;3.08;;;;;;;5.60;77.87;100609.13;6108893;23;20085;-67
2022/04/04 11:43:04;;;;;;;5.05;4.85;;;;;;;5.48;78.62;100594.75;6082939;23;20113;-69
2022/04/04 11:45:39;;;;;;;3.30;3.20;;;;;;;5.45;78.96;100604.41;6083374;23;20032;-67
2022/04/04 11:48:11;;;;;;;5.75;5.47;;;;;;;5.36;78.69;100602.97;6110544;23;20091;-66
2022/04/04 11:50:38;;;;;;;3.40;3.30;;;;;;;5.35;81.09;100598.63;6104636;23;20037;-67